This is the latest recevied weather packets stored in our database for station/object PY2XH-13. If no packets are shown the sender has not sent any weather packets the latest 10 day(s).
| Time | Temp. | Humidity | Pressure | Rain* | Wind** | Luminosity | Snow |
|---|---|---|---|---|---|---|---|
| 1787982364 | 23.89° C | 64% | 1026.8 hPa | - | - | - | - |
| 1787980564 | 23.89° C | 64% | 1026.6 hPa | - | - | - | - |
| 1787978764 | 23.89° C | 64% | 1027 hPa | - | - | - | - |
| 1787976964 | 23.89° C | 64% | 1027.4 hPa | - | - | - | - |
| 1787975165 | 23.89° C | 64% | 1027.4 hPa | - | - | - | - |
| 1787973364 | 23.89° C | 64% | 1027.4 hPa | - | - | - | - |
| 1787971564 | 23.89° C | 62% | 1027.5 hPa | - | - | - | - |
| 1787969765 | 23.89° C | 61% | 1027.6 hPa | - | - | - | - |
| 1787967965 | 23.89° C | 61% | 1027.5 hPa | - | - | - | - |
| 1787966164 | 23.89° C | 59% | 1027.4 hPa | - | - | - | - |
| 1787964364 | 23.89° C | 58% | 1027.3 hPa | - | - | - | - |
| 1787955365 | 23.89° C | 57% | 1026.2 hPa | - | - | - | - |
| 1787953565 | 23.89° C | 56% | 1025.7 hPa | - | - | - | - |
| 1787951764 | 23.89° C | 54% | 1026 hPa | - | - | - | - |
| 1787948165 | 24.44° C | 50% | 1025.3 hPa | - | - | - | - |
| 1787944565 | 26.11° C | 45% | 1025 hPa | - | - | - | - |
| 1787942765 | 24.44° C | 51% | 1024.9 hPa | - | - | - | - |
| 1787940964 | 26.11° C | 45% | 1025 hPa | - | - | - | - |
| 1787939164 | 26.11° C | 44% | 1025.4 hPa | - | - | - | - |
| 1787937364 | 26.11° C | 44% | 1025.9 hPa | - | - | - | - |
| 1787935564 | 23.89° C | 54% | 1026.2 hPa | - | - | - | - |
| 1787933764 | 23.33° C | 56% | 1026.4 hPa | - | - | - | - |
| 1787931964 | 23.33° C | 57% | 1026.9 hPa | - | - | - | - |
| 1787930164 | 23.33° C | 56% | 1027.3 hPa | - | - | - | - |
| 1787924767 | 22.22° C | 61% | 1028.6 hPa | - | - | - | - |
* Rain since midnight (hover to see other rain measurements)
** Current wind speed in m/s (hover to see current wind gust speed)